Time;durP1;ratioP1;P1;durP2;ratioP2;P2;SDS_P1;SDS_P2;PMS_P1;PMS_P2;Temp;Humidity;BMP_temperature;BMP_pressure;BME280_temperature;BME280_humidity;BME280_pressure;Samples;Min_cycle;Max_cycle;Signal;HPM_P1;HPM_P2
2022/11/03 00:01:49;;;;;;;6.53;1.90;;;;;;;20.22;40.85;101309.66;4985226;28;20058;-66
2022/11/03 00:04:18;;;;;;;8.48;1.35;;;;;;;20.19;41.17;101299.13;4968695;28;20031;-66
2022/11/03 00:06:46;;;;;;;4.10;1.27;;;;;;;20.21;41.45;101302.50;4967185;28;20027;-66
2022/11/03 00:09:13;;;;;;;11.70;1.83;;;;;;;20.20;41.46;101294.53;4984239;28;20066;-66
2022/11/03 00:11:40;;;;;;;5.20;0.90;;;;;;;20.21;41.35;101296.25;4968260;28;20039;-66
2022/11/03 00:14:06;;;;;;;10.52;1.58;;;;;;;20.20;41.64;101287.22;4993132;28;20026;-66
2022/11/03 00:16:32;;;;;;;10.23;1.50;;;;;;;20.17;41.23;101290.31;4994843;28;20054;-66
2022/11/03 00:18:57;;;;;;;7.35;1.70;;;;;;;20.22;41.51;101289.75;4978317;28;20038;-67
2022/11/03 00:21:22;;;;;;;12.25;1.50;;;;;;;20.20;41.14;101284.50;4994488;28;20041;-66
2022/11/03 00:23:48;;;;;;;7.18;1.42;;;;;;;20.21;41.39;101296.25;4994863;28;20046;-66
2022/11/03 00:26:15;;;;;;;9.98;1.00;;;;;;;20.21;41.46;101291.63;4972080;28;20023;-66
2022/11/03 00:28:42;;;;;;;8.48;1.20;;;;;;;20.21;41.28;101275.31;4977122;28;20099;-66
2022/11/03 00:31:18;;;;;;;5.43;0.95;;;;;;;20.22;41.45;101285.16;4959361;28;20082;-66
2022/11/03 00:33:43;;;;;;;6.70;1.20;;;;;;;20.24;41.19;101284.97;4976622;28;20038;-66
2022/11/03 00:36:12;;;;;;;7.63;1.23;;;;;;;20.23;40.74;101292.31;4975350;28;20061;-66
2022/11/03 00:38:37;;;;;;;5.75;1.42;;;;;;;20.23;40.67;101295.03;4958958;28;20496;-66
2022/11/03 00:41:04;;;;;;;4.03;1.27;;;;;;;20.24;41.25;101285.84;4991829;28;20050;-66
2022/11/03 00:43:31;;;;;;;5.38;1.20;;;;;;;20.18;40.91;101275.66;5007859;28;20043;-66
2022/11/03 00:45:57;;;;;;;12.43;1.58;;;;;;;20.21;41.44;101275.31;4974978;28;20173;-66
2022/11/03 00:48:32;;;;;;;4.88;1.23;;;;;;;20.20;40.96;101273.63;5006964;28;20564;-66
2022/11/03 00:51:03;;;;;;;6.15;1.80;;;;;;;20.17;40.69;101268.53;4988469;28;20031;-66
2022/11/03 00:53:30;;;;;;;8.52;1.85;;;;;;;20.15;41.05;101259.72;4976216;28;20037;-67
2022/11/03 00:55:55;;;;;;;9.10;1.92;;;;;;;20.14;40.95;101263.47;4975316;28;20498;-66
2022/11/03 00:58:21;;;;;;;5.60;1.35;;;;;;;20.16;40.86;101255.97;4974788;28;20039;-66
2022/11/03 01:00:46;;;;;;;9.85;1.15;;;;;;;20.14;40.94;101257.16;4974743;28;20441;-66
2022/11/03 01:03:12;;;;;;;6.88;1.17;;;;;;;20.12;41.21;101253.78;4991176;28;20074;-66
2022/11/03 01:08:34;;;;;;;5.45;1.05;;;;;;;20.11;41.55;101246.66;4975911;28;20038;-66
2022/11/03 01:13:58;;;;;;;3.78;0.75;;;;;;;20.07;41.42;101229.00;4974958;28;20085;-66
2022/11/03 01:16:24;;;;;;;3.05;0.77;;;;;;;20.05;41.35;101237.34;4958379;28;20034;-66
2022/11/03 01:18:50;;;;;;;8.20;1.20;;;;;;;20.04;40.84;101234.81;4974476;28;20066;-66
2022/11/03 01:21:16;;;;;;;5.53;1.30;;;;;;;20.02;40.68;101221.38;4990671;28;20031;-66
2022/11/03 01:23:41;;;;;;;8.98;1.42;;;;;;;20.04;41.30;101230.22;5007056;28;20050;-66
2022/11/03 01:26:08;;;;;;;4.55;0.95;;;;;;;20.05;40.91;101226.47;4990899;28;20034;-66
2022/11/03 01:28:34;;;;;;;8.48;1.30;;;;;;;20.04;41.05;101218.50;4974351;28;20038;-66
2022/11/03 01:31:17;;;;;;;5.15;0.90;;;;;;;20.02;41.23;101210.50;4974394;28;20050;-66
2022/11/03 01:33:46;;;;;;;9.13;1.10;;;;;;;19.98;41.32;101209.19;4974440;28;20046;-66
2022/11/03 01:36:12;;;;;;;10.60;1.05;;;;;;;19.98;41.23;101208.34;4989991;28;20034;-66
2022/11/03 01:38:38;;;;;;;6.90;1.52;;;;;;;20.00;41.04;101201.69;4989883;28;20034;-66
2022/11/03 01:41:06;;;;;;;4.70;0.95;;;;;;;20.02;41.37;101194.19;4974562;28;20034;-66
2022/11/03 01:43:31;;;;;;;2.83;1.00;;;;;;;20.03;41.36;101189.59;4973616;28;20409;-67
2022/11/03 01:46:17;;;;;;;6.75;1.27;;;;;;;20.01;40.96;101183.50;5006391;28;20039;-66
2022/11/03 01:48:47;;;;;;;3.80;1.63;;;;;;;19.97;41.30;101180.28;4990202;28;20585;-66
2022/11/03 01:51:13;;;;;;;5.43;1.02;;;;;;;19.96;41.33;101173.16;5006680;28;20496;-66
2022/11/03 01:53:41;;;;;;;4.72;0.98;;;;;;;19.98;40.81;101171.13;5006419;28;20496;-66
2022/11/03 01:56:07;;;;;;;3.10;0.75;;;;;;;19.96;41.33;101167.72;4974440;28;20500;-66
2022/11/03 01:58:36;;;;;;;2.53;0.85;;;;;;;19.99;40.60;101166.53;5005809;28;20031;-66
2022/11/03 02:01:01;;;;;;;5.20;1.02;;;;;;;19.98;41.45;101171.13;4990009;28;20122;-66
2022/11/03 02:03:30;;;;;;;6.35;0.93;;;;;;;19.98;40.56;101165.66;4957643;28;20515;-66
2022/11/03 02:05:55;;;;;;;10.80;1.08;;;;;;;20.00;41.26;101151.88;4973722;28;20038;-66
2022/11/03 02:08:22;;;;;;;11.02;1.05;;;;;;;20.01;41.17;101151.72;5005825;28;20027;-66
2022/11/03 02:10:48;;;;;;;6.00;1.08;;;;;;;20.02;40.72;101147.94;5006553;28;20034;-66
2022/11/03 02:13:19;;;;;;;3.35;1.08;;;;;;;20.05;41.24;101149.44;4957268;28;20031;-66
2022/11/03 02:15:48;;;;;;;5.90;1.08;;;;;;;20.04;40.97;101147.78;4974394;28;20039;-66
2022/11/03 02:18:15;;;;;;;8.77;1.48;;;;;;;20.04;40.84;101142.34;5004793;28;20110;-66
2022/11/03 02:20:41;;;;;;;6.05;1.35;;;;;;;20.05;41.16;101150.31;4973515;28;20534;-66
2022/11/03 02:23:16;;;;;;;4.97;1.30;;;;;;;20.06;41.09;101146.56;5006324;28;20448;-66
2022/11/03 02:25:46;;;;;;;1.77;0.65;;;;;;;20.06;41.06;101135.69;4989972;28;20420;-66
2022/11/03 02:28:14;;;;;;;4.43;1.00;;;;;;;20.06;41.05;101129.41;5005342;28;20047;-66
2022/11/03 02:30:52;;;;;;;2.88;0.75;;;;;;;20.06;40.81;101135.69;4989227;28;20066;-66
2022/11/03 02:33:28;;;;;;;4.05;0.60;;;;;;;20.02;41.00;101133.50;4974377;28;20575;-66
2022/11/03 02:36:02;;;;;;;7.43;1.00;;;;;;;20.04;41.41;101126.88;4989216;28;20035;-66
2022/11/03 02:38:29;;;;;;;5.22;0.93;;;;;;;20.05;40.77;101127.69;4973995;28;20539;-66
2022/11/03 02:40:57;;;;;;;2.95;0.80;;;;;;;20.00;40.69;101120.09;4957435;28;20061;-66
2022/11/03 02:43:23;;;;;;;9.40;1.23;;;;;;;20.00;40.86;101111.94;4989050;28;20039;-66
2022/11/03 02:45:50;;;;;;;5.15;1.00;;;;;;;19.99;41.31;101106.69;4973056;28;20524;-66
2022/11/03 02:48:17;;;;;;;8.32;0.70;;;;;;;19.97;42.03;101101.41;5005468;28;20433;-66
2022/11/03 02:50:42;;;;;;;4.28;0.75;;;;;;;20.00;41.42;101103.78;4972985;28;20113;-66
2022/11/03 02:53:12;;;;;;;2.90;0.80;;;;;;;19.99;41.04;101096.63;4989521;28;20114;-66
2022/11/03 02:56:02;;;;;;;10.35;1.15;;;;;;;20.00;41.14;101092.91;4989139;28;20047;-66
2022/11/03 02:58:38;;;;;;;6.88;0.93;;;;;;;20.01;41.10;101093.75;4970463;28;20039;-66
2022/11/03 03:01:13;;;;;;;7.07;1.02;;;;;;;20.00;40.95;101086.59;5005444;28;20496;-66
2022/11/03 03:03:50;;;;;;;7.90;0.95;;;;;;;20.05;41.54;101085.03;4972777;28;20093;-66
2022/11/03 03:06:20;;;;;;;1.48;0.82;;;;;;;20.05;41.43;101095.06;4972768;28;20054;-66
2022/11/03 03:08:50;;;;;;;3.60;1.13;;;;;;;20.05;41.23;101082.31;4973698;28;20114;-66
2022/11/03 03:11:15;;;;;;;2.60;0.90;;;;;;;20.08;41.64;101095.53;4972391;28;20396;-66
2022/11/03 03:13:42;;;;;;;2.75;1.25;;;;;;;20.09;41.68;101070.03;4973221;28;20102;-66
2022/11/03 03:16:23;;;;;;;2.90;1.08;;;;;;;20.11;41.99;101073.41;4973963;28;20039;-66
2022/11/03 03:19:10;;;;;;;9.73;1.67;;;;;;;20.15;41.23;101073.91;4972731;28;20057;-66
2022/11/03 03:21:40;;;;;;;8.65;1.50;;;;;;;20.15;41.24;101079.34;4973523;28;20038;-66
2022/11/03 03:24:11;;;;;;;7.32;1.10;;;;;;;20.14;41.62;101078.47;4956592;28;20042;-66
2022/11/03 03:26:41;;;;;;;3.97;1.50;;;;;;;20.13;41.69;101065.06;4972715;28;20039;-66
2022/11/03 03:29:13;;;;;;;5.13;1.58;;;;;;;20.13;41.52;101060.47;4956874;28;20026;-67
2022/11/03 03:31:40;;;;;;;5.88;1.17;;;;;;;20.14;41.41;101059.44;4973021;28;20129;-66
2022/11/03 03:34:06;;;;;;;2.80;0.80;;;;;;;20.14;41.69;101056.72;4956417;28;20043;-66
2022/11/03 03:36:32;;;;;;;4.05;1.38;;;;;;;20.17;41.64;101042.75;4972494;28;20505;-66
2022/11/03 03:39:01;;;;;;;4.20;1.05;;;;;;;20.17;42.55;101041.91;4972249;28;20043;-66
2022/11/03 03:41:27;;;;;;;8.95;1.83;;;;;;;20.20;42.26;101046.97;4973764;28;20027;-67
2022/11/03 03:43:56;;;;;;;4.70;1.13;;;;;;;20.22;41.90;101053.06;4973005;28;20027;-65
2022/11/03 03:46:25;;;;;;;5.88;1.25;;;;;;;20.22;41.73;101044.91;4972334;28;20034;-66
2022/11/03 03:48:50;;;;;;;5.90;1.20;;;;;;;20.22;42.02;101032.16;4972666;28;20046;-66
2022/11/03 03:51:19;;;;;;;6.03;1.27;;;;;;;20.24;42.30;101037.38;4955784;28;20031;-67
2022/11/03 03:53:49;;;;;;;5.30;1.35;;;;;;;20.25;42.53;101025.53;4956141;28;20030;-67
2022/11/03 03:56:14;;;;;;;5.47;1.38;;;;;;;20.24;42.43;101027.38;4956539;28;20373;-66
2022/11/03 03:58:40;;;;;;;6.72;2.03;;;;;;;20.24;42.34;101024.66;4973959;28;20042;-66
2022/11/03 04:01:05;;;;;;;12.32;1.52;;;;;;;20.25;42.53;101018.22;4972064;28;20034;-66
2022/11/03 04:03:30;;;;;;;6.50;1.42;;;;;;;20.23;42.84;101011.25;4973389;28;20034;-66
2022/11/03 04:05:56;;;;;;;7.35;1.30;;;;;;;20.26;42.13;101011.75;4973321;28;20445;-66
2022/11/03 04:08:21;;;;;;;5.72;1.00;;;;;;;20.27;42.25;100991.66;4955868;28;20492;-66
2022/11/03 04:24:31;;;;;;;6.15;0.95;;;;;;;20.24;42.87;100991.13;4976810;28;20050;-66
2022/11/03 04:27:04;;;;;;;4.70;1.25;;;;;;;20.23;42.70;100984.88;4976439;28;20043;-66
2022/11/03 04:29:29;;;;;;;5.18;1.08;;;;;;;20.22;42.68;100976.88;4975601;28;20031;-67
2022/11/03 04:31:55;;;;;;;9.27;0.80;;;;;;;20.23;42.92;100984.88;4977115;28;20050;-66
2022/11/03 04:34:22;;;;;;;3.15;0.82;;;;;;;20.23;42.26;100974.00;4975238;28;20042;-66
2022/11/03 04:36:47;;;;;;;5.93;1.20;;;;;;;20.19;43.24;100966.38;4975315;28;20109;-66
2022/11/03 04:39:18;;;;;;;4.75;1.65;;;;;;;20.19;43.09;100974.53;4958821;28;20556;-67
2022/11/03 04:41:44;;;;;;;5.43;1.25;;;;;;;20.17;42.55;100969.31;4975296;28;20034;-67
2022/11/03 04:44:15;;;;;;;5.80;1.23;;;;;;;20.16;42.52;100961.31;4975624;28;20418;-66
2022/11/03 04:46:40;;;;;;;2.60;0.95;;;;;;;20.13;42.56;100958.97;4975201;28;20039;-67
2022/11/03 04:49:10;;;;;;;8.70;1.45;;;;;;;20.10;42.35;100954.75;4974579;28;20053;-66
2022/11/03 04:51:35;;;;;;;3.63;0.93;;;;;;;20.12;42.87;100960.88;4974857;28;20038;-66
2022/11/03 04:54:08;;;;;;;5.30;0.85;;;;;;;20.07;42.71;100941.53;4976066;28;20085;-67
2022/11/03 04:56:33;;;;;;;;;;;;;;;20.09;42.70;100942.19;4975587;28;20058;-66
2022/11/03 04:58:59;;;;;;;3.15;1.00;;;;;;;20.05;43.18;100938.16;4975398;28;19917;-66
2022/11/03 05:01:24;;;;;;;4.00;1.10;;;;;;;20.05;43.19;100949.03;4974629;28;20125;-66
2022/11/03 05:03:52;;;;;;;9.32;1.30;;;;;;;20.05;43.10;100938.16;4974732;28;20046;-66
2022/11/03 05:06:25;;;;;;;6.70;1.50;;;;;;;20.03;43.04;100929.34;4974929;28;20046;-66
2022/11/03 05:09:22;;;;;;;3.60;0.93;;;;;;;20.01;42.61;100925.97;4975950;28;20497;-66
2022/11/03 05:11:47;;;;;;;6.68;1.05;;;;;;;20.02;42.96;100926.81;4955093;28;20031;-66
2022/11/03 05:14:19;;;;;;;7.60;0.88;;;;;;;19.97;42.88;100921.94;4974729;28;20497;-65
2022/11/03 05:16:46;;;;;;;9.35;1.23;;;;;;;19.97;43.05;100923.81;4958939;28;20071;-66
2022/11/03 05:19:15;;;;;;;6.45;0.77;;;;;;;19.99;43.41;100927.22;4958258;28;20483;-66
2022/11/03 05:21:40;;;;;;;7.72;0.95;;;;;;;19.99;43.27;100922.59;4974260;28;20050;-66
2022/11/03 05:24:10;;;;;;;1.92;1.10;;;;;;;19.98;42.90;100912.75;4974217;28;20042;-66
2022/11/03 05:26:36;;;;;;;6.72;1.15;;;;;;;19.98;43.35;100909.19;4974127;28;20051;-66
2022/11/03 05:29:22;;;;;;;4.55;1.27;;;;;;;19.99;43.60;100900.84;4976084;28;20508;-66
2022/11/03 05:31:48;;;;;;;11.30;2.10;;;;;;;19.97;43.25;100896.63;4974692;28;20559;-66
2022/11/03 05:34:19;;;;;;;3.08;1.30;;;;;;;19.98;43.67;100899.16;4973988;28;20516;-66
2022/11/03 05:36:45;;;;;;;2.03;0.95;;;;;;;19.95;43.35;100888.66;4973839;28;20038;-66
2022/11/03 05:39:22;;;;;;;9.02;1.15;;;;;;;19.99;43.27;100887.22;4973971;28;20419;-66
2022/11/03 05:41:47;;;;;;;5.90;0.63;;;;;;;20.00;43.67;100880.78;4957839;28;20522;-66
2022/11/03 05:44:27;;;;;;;7.85;1.40;;;;;;;20.02;43.39;100877.84;4974109;28;20126;-66
2022/11/03 05:46:52;;;;;;;4.88;1.73;;;;;;;20.02;43.15;100873.25;4974364;28;20095;-66
2022/11/03 05:49:18;;;;;;;12.48;1.27;;;;;;;20.05;43.52;100861.16;4975059;28;20096;-67
2022/11/03 05:51:44;;;;;;;4.40;1.23;;;;;;;20.00;43.92;100856.28;4973904;28;20104;-66
2022/11/03 05:54:26;;;;;;;6.95;1.13;;;;;;;20.03;43.17;100864.06;4957836;28;20035;-66
2022/11/03 05:56:52;;;;;;;3.33;1.20;;;;;;;20.02;44.01;100853.38;4974060;28;20443;-66
2022/11/03 05:59:21;;;;;;;2.63;0.93;;;;;;;20.05;43.31;100862.00;4941900;28;20027;-66
2022/11/03 06:01:46;;;;;;;6.82;1.17;;;;;;;20.04;43.43;100852.19;4974217;28;20412;-66
2022/11/03 06:04:19;;;;;;;4.85;1.35;;;;;;;20.05;43.12;100851.13;4973718;28;20042;-66
2022/11/03 06:06:59;;;;;;;4.57;1.05;;;;;;;20.04;43.10;100838.59;4973506;28;20046;-66
2022/11/03 06:09:25;;;;;;;4.22;1.08;;;;;;;20.03;43.17;100836.88;4973649;28;20382;-66
2022/11/03 06:11:53;;;;;;;3.00;0.57;;;;;;;20.01;44.40;100838.97;4973150;28;20471;-66
2022/11/03 06:14:23;;;;;;;6.90;1.38;;;;;;;20.06;43.97;100839.22;4957521;28;20472;-66
2022/11/03 06:16:51;;;;;;;12.93;0.93;;;;;;;20.03;43.82;100825.16;4973988;28;20477;-66
2022/11/03 06:19:38;;;;;;;6.35;1.23;;;;;;;20.02;43.68;100827.03;4957557;28;20038;-66
2022/11/03 06:22:27;;;;;;;12.07;1.38;;;;;;;20.03;43.30;100833.31;4974581;28;20046;-66
2022/11/03 06:25:09;;;;;;;5.88;0.80;;;;;;;20.01;43.49;100830.81;4973410;28;20042;-67
2022/11/03 06:27:34;;;;;;;5.22;1.17;;;;;;;19.99;43.90;100818.44;4972841;28;20077;-66
2022/11/03 06:30:19;;;;;;;12.15;1.50;;;;;;;19.97;43.59;100807.72;4973177;28;20509;-66
2022/11/03 06:32:45;;;;;;;5.13;1.00;;;;;;;19.98;43.70;100808.56;4974327;28;20038;-67
2022/11/03 06:35:12;;;;;;;4.82;0.85;;;;;;;20.01;43.74;100811.75;4973636;28;20031;-66
2022/11/03 06:37:37;;;;;;;3.03;0.93;;;;;;;20.04;43.31;100816.81;4956835;28;20054;-65
2022/11/03 06:40:29;;;;;;;7.30;0.82;;;;;;;20.04;43.98;100811.38;4972132;28;20404;-62
2022/11/03 06:42:57;;;;;;;6.15;1.10;;;;;;;20.05;43.74;100802.16;4967752;28;20512;-64
2022/11/03 06:45:24;;;;;;;7.78;1.13;;;;;;;20.06;43.86;100795.72;4973643;28;20038;-65
2022/11/03 06:47:51;;;;;;;8.20;0.88;;;;;;;20.07;43.50;100794.66;4956781;28;20043;-64
2022/11/03 06:50:30;;;;;;;6.78;1.20;;;;;;;20.11;43.63;100795.97;4973102;28;20030;-64
2022/11/03 06:52:56;;;;;;;4.82;0.98;;;;;;;20.11;43.43;100790.53;4957330;28;20029;-65
2022/11/03 06:55:25;;;;;;;2.92;0.93;;;;;;;20.12;43.53;100784.06;4940708;28;20035;-64
2022/11/03 06:57:56;;;;;;;5.88;1.10;;;;;;;20.16;43.48;100788.06;4972917;28;20031;-65
2022/11/03 07:00:27;;;;;;;4.75;1.00;;;;;;;20.16;43.24;100785.34;4972696;28;20037;-65
2022/11/03 07:02:55;;;;;;;3.22;0.60;;;;;;;20.18;43.32;100785.19;4974037;28;20591;-65
2022/11/03 07:05:28;;;;;;;1.95;0.75;;;;;;;20.16;43.58;100774.47;4973824;28;20396;-65
2022/11/03 07:07:58;;;;;;;;;;;;;;;20.24;43.67;100778.94;4973503;28;20404;-65
2022/11/03 07:10:25;;;;;;;5.38;1.00;;;;;;;20.25;43.24;100781.53;4972813;28;19950;-65
2022/11/03 07:12:51;;;;;;;3.70;0.70;;;;;;;20.27;43.15;100779.44;4972847;28;20500;-65
2022/11/03 07:15:23;;;;;;;1.60;0.90;;;;;;;20.33;43.08;100780.53;4972787;28;20086;-65
2022/11/03 07:17:49;;;;;;;;;;;;;;;20.36;43.00;100771.16;4972947;28;20031;-65
2022/11/03 07:20:15;;;;;;;7.13;1.17;;;;;;;20.39;42.79;100770.75;4973548;28;19910;-65
2022/11/03 07:22:41;;;;;;;6.80;1.02;;;;;;;20.38;42.96;100758.22;4974272;28;20031;-65
2022/11/03 07:25:33;;;;;;;7.00;0.93;;;;;;;20.43;43.00;100761.19;4956610;28;20031;-65
2022/11/03 07:28:00;;;;;;;4.90;1.25;;;;;;;20.42;42.91;100759.50;4970470;28;20042;-65
2022/11/03 07:30:29;;;;;;;5.00;1.92;;;;;;;20.45;43.29;100753.66;4972497;28;20066;-66
2022/11/03 07:33:00;;;;;;;3.75;1.20;;;;;;;20.46;42.89;100745.31;4956473;28;20119;-66
2022/11/03 07:35:25;;;;;;;2.70;0.70;;;;;;;20.49;43.10;100749.53;4972619;28;20023;-66
2022/11/03 07:37:51;;;;;;;3.75;0.77;;;;;;;20.54;42.88;100752.50;4973976;28;20053;-65
2022/11/03 07:40:21;;;;;;;3.88;1.30;;;;;;;20.53;42.84;100745.34;4956138;28;20054;-65
2022/11/03 07:42:46;;;;;;;6.40;1.00;;;;;;;20.55;42.77;100749.56;4972563;28;20508;-66
2022/11/03 07:45:37;;;;;;;8.57;1.15;;;;;;;20.62;42.52;100755.09;4972504;28;20046;-65
2022/11/03 07:48:24;;;;;;;7.05;0.95;;;;;;;20.57;43.11;100752.13;4972106;28;20043;-66
2022/11/03 07:50:55;;;;;;;5.53;0.95;;;;;;;20.61;43.11;100758.81;4973658;28;20039;-66
2022/11/03 07:53:39;;;;;;;5.03;1.17;;;;;;;20.62;43.04;100761.38;4956263;28;20034;-66
2022/11/03 07:56:25;;;;;;;3.00;1.10;;;;;;;20.63;42.58;100768.47;4957864;28;20094;-66
2022/11/03 07:59:04;;;;;;;6.15;1.13;;;;;;;20.65;42.55;100760.13;4960398;28;20519;-66
2022/11/03 08:01:36;;;;;;;3.70;1.00;;;;;;;20.67;42.65;100766.22;4959855;28;20038;-65
2022/11/03 08:04:06;;;;;;;3.63;1.33;;;;;;;20.64;42.84;100753.84;4976067;28;20058;-65
2022/11/03 08:06:32;;;;;;;5.47;1.23;;;;;;;20.63;43.12;100745.88;4975373;28;20039;-66
2022/11/03 08:08:57;;;;;;;4.97;1.10;;;;;;;20.64;42.79;100747.56;4975724;28;20428;-65
2022/11/03 08:11:23;;;;;;;3.30;0.93;;;;;;;20.65;43.02;100752.81;4975897;28;20035;-65
2022/11/03 08:13:52;;;;;;;3.70;1.10;;;;;;;20.69;42.54;100751.38;4976330;28;20473;-65
2022/11/03 08:16:18;;;;;;;4.90;1.02;;;;;;;20.71;42.64;100734.84;4975838;28;20114;-66
2022/11/03 08:18:44;;;;;;;6.38;0.70;;;;;;;20.74;42.74;100726.28;4975557;28;20505;-65
2022/11/03 08:21:09;;;;;;;4.88;1.20;;;;;;;20.75;43.13;100722.50;4959465;28;20089;-66
2022/11/03 08:23:35;;;;;;;3.90;0.95;;;;;;;20.77;42.77;100717.72;4975766;28;20027;-65
2022/11/03 08:26:00;;;;;;;3.65;0.98;;;;;;;20.78;42.79;100716.69;4975998;28;20042;-65
2022/11/03 08:28:25;;;;;;;6.20;1.00;;;;;;;20.81;42.24;100714.41;4976644;28;20046;-66
2022/11/03 08:30:51;;;;;;;3.47;0.73;;;;;;;20.87;42.60;100710.03;4975722;28;20043;-66
2022/11/03 08:33:16;;;;;;;2.65;0.82;;;;;;;20.91;42.21;100697.69;4976765;28;20038;-65
2022/11/03 08:35:42;;;;;;;5.55;1.13;;;;;;;20.95;42.69;100690.81;4976609;28;20023;-66
2022/11/03 08:38:08;;;;;;;4.82;0.80;;;;;;;20.98;42.42;100676.81;4976853;28;20075;-65
2022/11/03 08:40:33;;;;;;;2.92;1.08;;;;;;;21.02;41.96;100672.63;4975310;28;20500;-66
2022/11/03 08:43:01;;;;;;;7.63;1.95;;;;;;;21.07;41.95;100678.38;4959190;28;20163;-66
2022/11/03 08:45:27;;;;;;;4.38;1.23;;;;;;;21.12;41.89;100664.13;4975106;28;20035;-66
2022/11/03 08:47:53;;;;;;;3.25;0.82;;;;;;;21.17;42.49;100657.03;4975235;28;20500;-66
2022/11/03 08:50:18;;;;;;;2.10;1.33;;;;;;;21.24;42.05;100641.56;4975143;28;20031;-65
2022/11/03 08:52:44;;;;;;;4.97;1.25;;;;;;;21.29;41.30;100649.13;4975474;28;20393;-66
2022/11/03 08:55:09;;;;;;;3.88;0.95;;;;;;;21.35;41.87;100645.59;4975023;28;20497;-66
2022/11/03 08:57:34;;;;;;;2.38;0.75;;;;;;;21.37;41.77;100629.88;4959153;28;20505;-66
2022/11/03 09:00:00;;;;;;;2.90;1.02;;;;;;;21.42;41.91;100628.22;4958984;28;20497;-65
2022/11/03 09:02:25;;;;;;;7.07;0.98;;;;;;;21.50;41.28;100624.47;4974951;28;20026;-66
2022/11/03 09:04:50;;;;;;;8.38;1.00;;;;;;;21.55;41.35;100623.88;4976587;28;20069;-66
2022/11/03 09:07:16;;;;;;;5.68;1.42;;;;;;;21.60;41.54;100614.03;4974339;28;20564;-65
2022/11/03 09:09:41;;;;;;;2.00;0.82;;;;;;;21.64;41.22;100620.72;4958423;28;20035;-65
2022/11/03 09:12:06;;;;;;;5.80;0.80;;;;;;;21.63;41.67;100601.84;4976069;28;20093;-66
2022/11/03 09:14:32;;;;;;;4.68;1.05;;;;;;;21.64;41.30;100598.06;4974722;28;20039;-66
2022/11/03 09:16:57;;;;;;;3.67;0.68;;;;;;;21.65;41.42;100591.59;4958935;28;20031;-65
2022/11/03 09:19:22;;;;;;;3.70;0.63;;;;;;;21.66;41.69;100587.81;4958441;28;20050;-65
2022/11/03 09:21:48;;;;;;;3.53;0.98;;;;;;;21.62;41.17;100570.19;4974226;28;20037;-69
2022/11/03 09:24:13;;;;;;;1.27;0.70;;;;;;;21.68;41.12;100558.44;4974629;28;20073;-66
2022/11/03 09:26:39;;;;;;;3.72;1.17;;;;;;;21.73;41.14;100558.66;4974454;28;20031;-66
2022/11/03 09:29:04;;;;;;;6.47;0.80;;;;;;;21.78;41.19;100547.97;4942728;28;20122;-65
2022/11/03 09:31:29;;;;;;;4.18;0.70;;;;;;;21.78;40.94;100540.63;4958181;28;20050;-65
2022/11/03 09:33:55;;;;;;;4.15;0.70;;;;;;;21.80;41.53;100532.25;4973914;28;20030;-66
2022/11/03 09:36:20;;;;;;;1.75;0.85;;;;;;;21.78;41.10;100529.72;4974371;28;20043;-65
2022/11/03 09:38:46;;;;;;;4.72;1.00;;;;;;;21.78;40.90;100526.16;4973887;28;20567;-65
2022/11/03 09:41:16;;;;;;;3.08;0.75;;;;;;;21.83;41.19;100524.47;4974710;28;20033;-65
2022/11/03 09:43:45;;;;;;;1.15;0.82;;;;;;;21.84;40.81;100509.78;4974330;28;20073;-66
2022/11/03 09:46:11;;;;;;;2.10;0.80;;;;;;;21.87;41.37;100511.28;4974165;28;20027;-65
2022/11/03 09:48:37;;;;;;;4.53;0.65;;;;;;;21.84;40.69;100504.34;4974078;28;20038;-65
2022/11/03 09:51:03;;;;;;;2.60;1.45;;;;;;;21.79;40.95;100506.88;4974030;28;20085;-65
2022/11/03 09:53:29;;;;;;;8.73;1.10;;;;;;;21.80;40.56;100515.88;4957927;28;20031;-66
2022/11/03 09:55:54;;;;;;;6.97;0.90;;;;;;;21.78;40.44;100502.44;4974520;28;20026;-65
2022/11/03 09:58:20;;;;;;;3.80;0.82;;;;;;;21.78;40.73;100497.00;4973956;28;20034;-66
2022/11/03 10:00:45;;;;;;;4.15;1.23;;;;;;;21.79;40.75;100497.84;4973936;28;20085;-65
2022/11/03 10:03:12;;;;;;;3.55;0.95;;;;;;;21.82;40.60;100494.69;4973794;28;20504;-66
2022/11/03 10:05:38;;;;;;;5.88;0.80;;;;;;;21.82;41.45;100494.69;4957601;28;20039;-66
2022/11/03 10:08:06;;;;;;;4.35;1.00;;;;;;;21.80;40.95;100477.72;4974090;28;20026;-66
2022/11/03 10:10:32;;;;;;;1.92;0.60;;;;;;;21.80;41.32;100477.72;4957503;28;20619;-66
2022/11/03 10:12:58;;;;;;;1.60;0.80;;;;;;;21.77;41.22;100464.50;4973658;28;20038;-66
2022/11/03 10:15:24;;;;;;;4.68;1.23;;;;;;;21.81;40.72;100465.72;4957482;28;20026;-66
2022/11/03 10:17:50;;;;;;;2.00;0.80;;;;;;;21.82;40.73;100462.81;4957445;28;20097;-65
2022/11/03 10:20:18;;;;;;;3.10;1.08;;;;;;;21.82;41.16;100454.63;4973546;28;20058;-66
2022/11/03 10:22:44;;;;;;;4.32;0.98;;;;;;;21.85;41.32;100458.81;4973968;28;20044;-66
2022/11/03 10:25:37;;;;;;;5.72;0.93;;;;;;;21.87;40.56;100452.13;4957292;28;20039;-66
2022/11/03 10:28:13;;;;;;;3.08;0.50;;;;;;;21.90;41.25;100450.88;4974557;28;20035;-66
2022/11/03 10:30:48;;;;;;;10.20;0.93;;;;;;;21.93;40.80;100442.25;4973374;28;20035;-65
2022/11/03 10:33:28;;;;;;;3.20;0.90;;;;;;;21.96;40.45;100428.19;4973260;28;20035;-65
2022/11/03 10:35:58;;;;;;;2.75;0.82;;;;;;;21.95;40.28;100429.25;4974520;28;20035;-65
2022/11/03 10:38:32;;;;;;;2.15;0.90;;;;;;;21.93;40.16;100428.63;4972759;28;20520;-66
2022/11/03 10:41:09;;;;;;;6.68;0.93;;;;;;;21.95;40.09;100418.34;4973672;28;20034;-66
2022/11/03 10:43:35;;;;;;;5.70;1.23;;;;;;;21.95;40.18;100418.34;4973144;28;20037;-66
2022/11/03 10:46:15;;;;;;;4.13;1.25;;;;;;;21.93;40.22;100412.25;4973122;28;20408;-66
2022/11/03 10:48:41;;;;;;;2.58;0.88;;;;;;;21.95;40.78;100405.53;4973095;28;20046;-66
2022/11/03 10:51:10;;;;;;;5.65;0.90;;;;;;;21.97;40.76;100405.34;4974388;28;20034;-66
2022/11/03 10:53:36;;;;;;;5.15;0.82;;;;;;;22.00;40.48;100407.63;4956940;28;20027;-65
2022/11/03 10:56:01;;;;;;;5.28;0.85;;;;;;;22.06;39.91;100406.75;4957306;28;20057;-66
2022/11/03 10:58:27;;;;;;;1.45;0.82;;;;;;;22.05;40.58;100399.66;4956727;28;20050;-65
2022/11/03 11:00:52;;;;;;;2.60;1.08;;;;;;;22.05;39.92;100388.75;4955988;28;20035;-65
2022/11/03 11:03:18;;;;;;;6.18;1.20;;;;;;;22.09;40.50;100389.13;4972865;28;20497;-66
2022/11/03 11:05:45;;;;;;;5.15;0.68;;;;;;;22.06;40.76;100387.66;4974071;28;20031;-65
2022/11/03 11:08:13;;;;;;;3.47;0.80;;;;;;;22.09;40.27;100378.22;4973289;28;20513;-66
2022/11/03 11:10:42;;;;;;;4.82;1.15;;;;;;;22.09;39.98;100353.66;4974093;28;20045;-66
2022/11/03 11:13:14;;;;;;;3.72;0.73;;;;;;;22.13;40.26;100369.41;4972870;28;20054;-66
2022/11/03 11:15:41;;;;;;;3.40;1.08;;;;;;;22.16;40.04;100363.50;4974013;28;20519;-66
2022/11/03 11:18:07;;;;;;;2.13;1.02;;;;;;;22.21;39.61;100360.97;4973826;28;20027;-65
2022/11/03 11:20:42;;;;;;;2.45;0.70;;;;;;;22.47;39.65;100349.09;4956534;28;20035;-66
2022/11/03 11:23:26;;;;;;;5.03;0.60;;;;;;;22.83;39.97;100343.03;4973490;28;20027;-66
2022/11/03 11:26:09;;;;;;;6.55;0.88;;;;;;;22.90;39.84;100328.25;4974045;28;20055;-66
2022/11/03 11:28:38;;;;;;;9.23;0.80;;;;;;;22.97;40.06;100328.22;4973854;28;20520;-65
2022/11/03 11:31:21;;;;;;;5.57;0.70;;;;;;;23.07;39.90;100323.06;4974888;28;20031;-65
2022/11/03 11:33:47;;;;;;;1.33;0.80;;;;;;;23.16;38.92;100308.09;4976412;28;20178;-66
2022/11/03 11:36:21;;;;;;;3.83;0.85;;;;;;;23.26;38.82;100311.13;4976336;28;20461;-66
2022/11/03 11:38:54;;;;;;;4.85;0.93;;;;;;;23.25;39.24;100293.09;4976344;28;20042;-66
2022/11/03 11:41:20;;;;;;;2.58;0.68;;;;;;;23.19;39.64;100288.50;4976395;28;20503;-66
2022/11/03 11:43:46;;;;;;;3.97;0.95;;;;;;;23.17;39.17;100279.72;4960714;28;20023;-66
2022/11/03 11:46:38;;;;;;;3.72;0.90;;;;;;;23.14;38.87;100280.16;4976394;28;20081;-66
2022/11/03 11:49:04;;;;;;;2.33;0.90;;;;;;;23.06;38.86;100283.16;4960330;28;20118;-66
2022/11/03 11:51:36;;;;;;;2.38;0.95;;;;;;;22.99;38.73;100265.97;4976167;28;20528;-66
2022/11/03 11:54:06;;;;;;;0.43;0.40;;;;;;;22.96;39.64;100267.25;4976207;28;20086;-67